KEUG/EUG METAR and TAF weather

Enter ICAO airport designator
Station Type Date Time Source
KEUG METAR 2022/01/23 11:54 UTC NOAA

KEUG 231154Z AUTO 00000KT 1/4SM R16R/1000V1400FT FG VV001 02/01 A3036 RMK AO2 SLP284 I6001 T00170011 10022 21006 57005 TSNO


Station Type Date Time Source
KEUG Decoded METAR 2022/01/23 11:54 UTC NOAA

MAHLON SWEET FIELD, OR, United States (KEUG) 44-08N 123-13W 114M
Jan 23, 2022 - 06:54 AM EST / 2022.01.23 1154 UTC
Wind: Calm (direction variable):0
Visibility: 1/4 mile(s):0
Sky conditions: obscured
Weather: fog
Temperature: 35.1 F (1.7 C)
Dew Point: 34.0 F (1.1 C)
Relative Humidity: 95%
Pressure (altimeter): 30.36 in. Hg (1028 hPa)
Pressure tendency: 0.01 inches (0.5 hPa) lower than three hours ago
ob: KEUG 231154Z AUTO 00000KT 1/4SM R16R/1000V1400FT FG VV001 02/01 A3036 RMK AO2 SLP284 I6001 T00170011 10022 21006 57005 TSNO
cycle: 12

Station Type Date Time Source
KEUG TAF 2022/01/23 12:21 UTC NOAA

TAF KEUG 231120Z 2312/2412 VRB03KT 1/4SM FG VV001
FM232000 32004KT 1 1/2SM BR OVC005
FM232100 35004KT 4SM BR BKN010
FM232300 01002KT P6SM MIFG SCT012
FM240200 19003KT 1SM BR SCT002

Example: see airport list